Main page


Airports :

Paris-Charles De Gaulle, France

Charles de Gaulle Airport

latitude: 49-01N, longitude: 002-32E, elevation: 118 m

Current weather observation

The report was made 14 minutes ago, at 21:30 UTC
Wind 5 kt from the West
Temperature 6°C
Humidity 70%
Pressure 1017 hPa
Visibility 10 km or more
Overcast at a height of 2800 ft

METAR: LFPG 222130Z AUTO 28005KT 9999 OVC028 06/01 Q1017

Time: 22:44 (21:44 UTC)


The report was made 34 hours and 44 minutes ago, at 11:00 UTC
Forecast valid from 21 at 12 UTC to 22 at 18 UTC
Wind 12 kt from the North
Visibility 10 km or more
Scattered clouds at a height of 2500 ft
from 21 at 17 UTC to 21 at 19 UTC
Wind 5 kt from the North/Northwest
Probability 30% :
from 22 at 03 UTC to 22 at 06 UTC
Visibility: 4500 m
Probability 30% :
from 22 at 06 UTC to 22 at 08 UTC
Broken clouds at a height of 400 ft

TAF: LFPG 211100Z 2112/2218 01012KT 9999 SCT025 BECMG 2117/2119 33005KT PROB30 TEMPO 2203/2206 4500 BR PROB30 TEMPO 2206/2208 BKN004 TX08/2214Z TNM00/2205Z

Weather observations and forecasts of more than 4000 airports (METAR and TAF reports).

The available stations are represented by yellow and red dots on the map.

Hover mouse over dot to see the name of the station.

Then click to see weather observations and forecasts.

To change the map : click on the green buttons with a black cross to zoom in, on the green button with a dash to zoom out, or on the green arrows for adjacent maps.